Time;durP1;ratioP1;P1;durP2;ratioP2;P2;SDS_P1;SDS_P2;PMS_P1;PMS_P2;Temp;Humidity;BMP_temperature;BMP_pressure;BME280_temperature;BME280_humidity;BME280_pressure;Samples;Min_cycle;Max_cycle;Signal;HPM_P1;HPM_P2
2023/09/20 00:01:33;;;;;;;5.97;1.77;;;16.80;99.90;;;;;;5103184;28;20031;-80
2023/09/20 00:04:01;;;;;;;3.35;1.85;;;16.80;99.90;;;;;;5104379;28;20028;-80
2023/09/20 00:06:27;;;;;;;4.85;1.35;;;16.80;99.90;;;;;;5102173;28;20043;-80
2023/09/20 00:08:52;;;;;;;5.75;1.77;;;16.90;99.90;;;;;;5101655;28;20027;-79
2023/09/20 00:11:18;;;;;;;4.85;1.25;;;16.80;99.90;;;;;;5103847;28;20019;-81
2023/09/20 00:13:45;;;;;;;5.50;1.83;;;16.90;99.90;;;;;;5094677;28;20036;-81
2023/09/20 00:16:11;;;;;;;7.88;1.67;;;16.90;99.90;;;;;;5102790;28;20475;-81
2023/09/20 00:18:38;;;;;;;5.65;1.63;;;16.90;99.90;;;;;;5101546;28;20055;-81
2023/09/20 00:21:06;;;;;;;10.00;1.90;;;16.90;99.90;;;;;;5100820;28;20733;-82
2023/09/20 00:23:32;;;;;;;6.60;1.98;;;16.90;99.90;;;;;;5096466;28;20027;-81
2023/09/20 00:25:57;;;;;;;5.22;1.85;;;16.90;99.90;;;;;;5103404;28;20445;-81
2023/09/20 00:28:23;;;;;;;7.32;1.80;;;17.00;99.90;;;;;;5103968;28;20028;-81
2023/09/20 00:30:49;;;;;;;8.38;2.08;;;17.00;99.90;;;;;;5084360;28;20385;-81
2023/09/20 00:33:15;;;;;;;9.00;2.15;;;17.00;99.90;;;;;;5101406;28;20050;-81
2023/09/20 00:35:40;;;;;;;6.80;1.85;;;17.10;99.90;;;;;;5101262;28;20039;-82
2023/09/20 00:38:09;;;;;;;7.65;1.98;;;17.10;99.90;;;;;;5099185;28;20027;-81
2023/09/20 00:40:37;;;;;;;10.90;2.38;;;17.10;99.90;;;;;;5105422;28;20023;-80
2023/09/20 00:43:07;;;;;;;6.35;1.77;;;17.10;99.90;;;;;;5088954;28;20208;-80
2023/09/20 00:45:34;;;;;;;6.10;1.88;;;17.10;99.90;;;;;;5104254;28;20118;-82
2023/09/20 00:48:01;;;;;;;5.30;1.73;;;17.10;99.90;;;;;;5102744;28;20118;-82
2023/09/20 00:50:33;;;;;;;7.20;1.90;;;17.10;99.90;;;;;;5099235;28;20016;-82
2023/09/20 00:53:00;;;;;;;2.15;1.52;;;17.00;99.90;;;;;;5103713;28;20035;-84
2023/09/20 00:55:28;;;;;;;8.48;1.95;;;17.00;99.90;;;;;;5106305;28;20157;-83
2023/09/20 00:58:01;;;;;;;3.25;1.60;;;17.00;99.90;;;;;;5106608;28;20035;-81
2023/09/20 01:00:27;;;;;;;9.35;2.33;;;17.00;99.90;;;;;;5100905;28;20099;-81
2023/09/20 01:02:55;;;;;;;8.07;1.95;;;16.90;99.90;;;;;;5101165;28;20027;-82
2023/09/20 01:05:22;;;;;;;6.15;1.90;;;16.90;99.90;;;;;;5103850;28;20030;-80
2023/09/20 01:07:52;;;;;;;13.23;2.08;;;16.90;99.90;;;;;;5102747;28;20118;-84
2023/09/20 01:10:24;;;;;;;4.32;1.75;;;16.90;99.90;;;;;;5101993;28;20231;-80
2023/09/20 01:13:11;;;;;;;7.68;1.80;;;16.90;99.90;;;;;;5104132;28;20024;-80
2023/09/20 01:15:37;;;;;;;9.10;2.35;;;17.00;99.90;;;;;;5098475;28;20371;-81
2023/09/20 01:18:04;;;;;;;5.18;1.85;;;16.90;99.90;;;;;;5105660;28;20524;-82
2023/09/20 01:20:32;;;;;;;5.10;2.13;;;16.90;99.90;;;;;;5104611;28;20024;-82
2023/09/20 01:22:59;;;;;;;9.02;2.17;;;16.90;99.90;;;;;;5103619;28;20137;-81
2023/09/20 01:25:27;;;;;;;7.03;2.20;;;16.80;99.90;;;;;;5087078;28;20023;-82
2023/09/20 01:27:55;;;;;;;8.35;2.08;;;16.80;99.90;;;;;;5103643;28;20052;-81
2023/09/20 01:30:26;;;;;;;6.35;1.75;;;16.80;99.90;;;;;;5101677;28;20028;-80
2023/09/20 01:32:59;;;;;;;8.48;1.85;;;16.80;99.90;;;;;;5102664;28;20032;-83
2023/09/20 01:35:27;;;;;;;3.47;1.60;;;16.70;99.90;;;;;;5100704;28;20027;-82
2023/09/20 01:37:53;;;;;;;9.13;1.92;;;16.70;99.90;;;;;;5107226;28;20042;-81
2023/09/20 01:40:23;;;;;;;10.90;2.05;;;16.70;99.90;;;;;;5106716;28;20058;-83
2023/09/20 01:42:49;;;;;;;9.73;2.13;;;16.70;99.90;;;;;;5084216;28;20024;-82
2023/09/20 01:45:16;;;;;;;9.10;2.30;;;16.70;99.90;;;;;;5102964;28;20436;-83
2023/09/20 01:47:44;;;;;;;5.45;1.70;;;16.70;99.90;;;;;;5100624;28;20052;-82
2023/09/20 01:50:21;;;;;;;8.65;1.63;;;16.70;99.90;;;;;;5098913;28;20269;-85
2023/09/20 01:52:53;;;;;;;9.68;2.22;;;16.70;99.90;;;;;;5103129;28;20085;-82
2023/09/20 01:55:22;;;;;;;8.30;1.60;;;16.70;99.90;;;;;;5102906;28;20384;-84
2023/09/20 01:57:50;;;;;;;6.68;1.60;;;16.70;99.90;;;;;;5098665;28;20309;-83
2023/09/20 02:00:22;;;;;;;11.90;2.30;;;16.70;99.90;;;;;;5102176;28;20028;-81
2023/09/20 02:02:54;;;;;;;6.93;2.03;;;16.70;99.90;;;;;;5102292;28;20027;-82
2023/09/20 02:05:21;;;;;;;8.25;1.92;;;16.70;99.90;;;;;;5105253;28;20019;-85
2023/09/20 02:07:48;;;;;;;8.50;1.88;;;16.70;99.90;;;;;;5085161;28;20047;-82
2023/09/20 02:10:16;;;;;;;5.72;1.77;;;16.70;99.90;;;;;;5099148;28;20028;-83
2023/09/20 02:12:51;;;;;;;6.15;1.92;;;16.70;99.90;;;;;;5101660;28;20473;-83
2023/09/20 02:15:40;;;;;;;5.43;1.90;;;16.70;99.90;;;;;;5096488;28;20035;-81
2023/09/20 02:18:08;;;;;;;7.50;2.13;;;16.70;99.90;;;;;;5095308;28;20053;-81
2023/09/20 02:20:36;;;;;;;11.77;2.30;;;16.70;99.90;;;;;;5103555;28;20059;-81
2023/09/20 02:23:04;;;;;;;4.95;1.80;;;16.60;99.90;;;;;;5103925;28;20040;-82
2023/09/20 02:25:30;;;;;;;8.90;2.03;;;16.60;99.90;;;;;;5104107;28;20300;-80
2023/09/20 02:27:57;;;;;;;12.90;2.90;;;16.60;99.90;;;;;;5101791;28;20079;-80
2023/09/20 02:30:26;;;;;;;3.72;2.03;;;16.60;99.90;;;;;;5102238;28;20027;-81
2023/09/20 02:32:57;;;;;;;3.05;1.67;;;16.60;99.90;;;;;;5102416;28;20080;-80
2023/09/20 02:35:24;;;;;;;7.32;2.10;;;16.60;99.90;;;;;;5103593;28;20024;-82
2023/09/20 02:37:51;;;;;;;4.95;1.88;;;16.60;99.90;;;;;;5103230;28;20193;-81
2023/09/20 02:40:23;;;;;;;4.38;1.77;;;16.60;99.90;;;;;;5102202;28;20094;-81
2023/09/20 02:42:54;;;;;;;3.35;1.58;;;16.60;99.90;;;;;;5102432;28;20034;-81
2023/09/20 02:45:25;;;;;;;8.93;2.20;;;16.50;99.90;;;;;;5102046;28;20312;-83
2023/09/20 02:47:51;;;;;;;3.17;1.63;;;16.60;99.90;;;;;;5104011;28;20468;-81
2023/09/20 02:50:22;;;;;;;6.32;2.55;;;16.50;99.90;;;;;;5099580;28;20033;-82
2023/09/20 02:52:48;;;;;;;9.32;2.22;;;16.50;99.90;;;;;;5101820;28;20023;-81
2023/09/20 02:55:17;;;;;;;4.25;1.55;;;16.40;99.90;;;;;;5083544;28;20085;-82
2023/09/20 02:57:44;;;;;;;6.07;2.03;;;16.40;99.90;;;;;;5103385;28;20034;-82
2023/09/20 03:00:16;;;;;;;5.88;1.73;;;16.40;99.90;;;;;;5101468;28;20020;-81
2023/09/20 03:02:49;;;;;;;7.93;1.77;;;16.30;99.90;;;;;;5103493;28;20031;-81
2023/09/20 03:05:23;;;;;;;8.43;2.00;;;16.30;99.90;;;;;;5104014;28;20024;-82
2023/09/20 03:07:50;;;;;;;12.93;2.63;;;16.20;99.90;;;;;;5095906;28;20595;-81
2023/09/20 03:10:21;;;;;;;8.55;1.65;;;16.20;99.90;;;;;;5102100;28;20115;-82
2023/09/20 03:12:48;;;;;;;9.65;2.45;;;16.20;99.90;;;;;;5102767;28;20440;-81
2023/09/20 03:15:18;;;;;;;5.57;1.67;;;16.20;99.90;;;;;;5103935;28;20110;-83
2023/09/20 03:17:44;;;;;;;10.02;2.15;;;16.20;99.90;;;;;;5101445;28;20027;-83
2023/09/20 03:20:11;;;;;;;10.57;2.30;;;16.20;99.90;;;;;;5095935;28;20027;-82
2023/09/20 03:22:40;;;;;;;12.45;2.17;;;16.30;99.90;;;;;;5097792;28;20042;-83
2023/09/20 03:25:14;;;;;;;7.20;2.17;;;16.40;99.90;;;;;;5101398;28;20031;-82
2023/09/20 03:27:43;;;;;;;9.60;2.30;;;16.40;99.90;;;;;;5094298;28;20023;-82
2023/09/20 03:30:11;;;;;;;10.10;2.55;;;16.50;99.90;;;;;;5103435;28;20020;-82
2023/09/20 03:32:39;;;;;;;11.45;2.53;;;16.50;99.90;;;;;;5102726;28;20032;-82
2023/09/20 03:35:09;;;;;;;6.38;2.15;;;16.50;99.90;;;;;;5098277;28;21105;-82
2023/09/20 03:37:40;;;;;;;6.10;2.30;;;16.50;99.90;;;;;;5081248;28;20105;-82
2023/09/20 03:40:10;;;;;;;7.40;2.08;;;16.60;99.90;;;;;;5103807;28;20326;-82
2023/09/20 03:42:43;;;;;;;11.13;2.75;;;16.60;99.90;;;;;;5096316;28;20024;-82
2023/09/20 03:45:10;;;;;;;9.55;2.90;;;16.60;99.90;;;;;;5101876;28;20028;-82
2023/09/20 03:47:49;;;;;;;6.88;2.13;;;16.60;99.90;;;;;;5097989;28;20044;-83
2023/09/20 03:50:18;;;;;;;3.72;1.80;;;16.60;99.90;;;;;;5093679;28;20020;-83
2023/09/20 03:52:44;;;;;;;5.07;1.92;;;16.50;99.90;;;;;;5102198;28;20527;-83
2023/09/20 03:55:10;;;;;;;5.70;2.13;;;16.50;99.90;;;;;;5102633;28;20024;-82
2023/09/20 03:57:37;;;;;;;10.10;2.67;;;16.50;99.90;;;;;;5102945;28;20115;-83
2023/09/20 04:00:11;;;;;;;12.32;2.03;;;16.40;99.90;;;;;;5102330;28;20016;-82
2023/09/20 04:02:37;;;;;;;8.43;2.60;;;16.40;99.90;;;;;;5101302;28;20024;-83
2023/09/20 04:05:10;;;;;;;8.27;2.55;;;16.30;99.90;;;;;;5098329;28;20019;-82
2023/09/20 04:07:39;;;;;;;10.07;2.67;;;16.30;99.90;;;;;;5103687;28;20055;-82
2023/09/20 04:10:07;;;;;;;5.47;1.88;;;16.30;99.90;;;;;;5103815;28;20043;-83
2023/09/20 04:12:32;;;;;;;4.35;1.73;;;16.20;99.90;;;;;;5107691;28;20068;-83
2023/09/20 04:14:58;;;;;;;16.17;3.63;;;16.20;99.90;;;;;;5105219;28;20023;-83
2023/09/20 04:17:25;;;;;;;8.95;3.58;;;16.20;99.90;;;;;;5111298;27;20023;-82
2023/09/20 04:19:52;;;;;;;9.75;3.63;;;16.10;99.90;;;;;;5108113;28;20035;-83
2023/09/20 04:22:17;;;;;;;9.60;3.17;;;16.00;99.90;;;;;;5107785;27;20036;-83
2023/09/20 04:24:43;;;;;;;16.70;3.28;;;16.00;99.90;;;;;;5102782;28;20026;-83
2023/09/20 04:27:08;;;;;;;8.32;2.20;;;15.90;99.90;;;;;;5098366;28;20507;-82
2023/09/20 04:29:35;;;;;;;9.75;2.00;;;15.90;99.90;;;;;;5104616;28;20048;-83
2023/09/20 04:32:01;;;;;;;9.07;2.53;;;15.80;99.90;;;;;;5106702;28;20489;-83
2023/09/20 04:34:27;;;;;;;6.20;1.95;;;15.70;99.90;;;;;;5106450;27;20157;-83
2023/09/20 04:36:53;;;;;;;9.35;3.03;;;15.60;99.90;;;;;;5097748;28;20026;-82
2023/09/20 04:39:20;;;;;;;17.63;4.00;;;15.50;99.90;;;;;;5103403;28;20416;-83
2023/09/20 04:41:46;;;;;;;5.63;2.20;;;15.50;99.90;;;;;;5103212;28;20039;-83
2023/09/20 04:44:13;;;;;;;7.97;2.22;;;15.50;99.90;;;;;;5102129;28;20036;-83
2023/09/20 04:46:39;;;;;;;14.65;3.05;;;15.40;99.90;;;;;;5102514;28;20027;-82
2023/09/20 04:49:06;;;;;;;10.23;2.60;;;15.40;99.90;;;;;;5106406;28;20038;-83
2023/09/20 04:51:33;;;;;;;6.20;2.00;;;15.40;99.90;;;;;;5106742;27;20698;-83
2023/09/20 04:53:59;;;;;;;6.88;2.25;;;15.40;99.90;;;;;;5106673;27;20027;-83
2023/09/20 04:56:28;;;;;;;5.85;1.73;;;15.40;99.90;;;;;;5103971;27;20388;-83
2023/09/20 04:58:57;;;;;;;8.73;2.28;;;15.40;99.90;;;;;;5103907;27;20502;-83
2023/09/20 05:01:23;;;;;;;7.78;1.80;;;15.40;99.90;;;;;;5102160;28;20392;-82
2023/09/20 05:03:50;;;;;;;8.13;2.35;;;15.40;99.90;;;;;;5101875;28;20050;-82
2023/09/20 05:06:18;;;;;;;8.73;2.35;;;15.40;99.90;;;;;;5102298;28;20038;-83
2023/09/20 05:08:44;;;;;;;5.97;2.47;;;15.40;99.90;;;;;;5099183;28;20253;-83
2023/09/20 05:11:10;;;;;;;3.97;1.85;;;15.40;99.90;;;;;;5085024;28;20028;-83
2023/09/20 05:13:36;;;;;;;7.35;2.03;;;15.30;99.90;;;;;;5104933;27;20482;-83
2023/09/20 05:16:03;;;;;;;13.43;2.80;;;15.40;99.90;;;;;;5101282;28;20027;-81
2023/09/20 05:18:30;;;;;;;6.80;1.90;;;15.40;99.90;;;;;;5104963;28;20114;-82
2023/09/20 05:20:56;;;;;;;4.85;1.88;;;15.50;99.90;;;;;;5104858;28;20134;-83
2023/09/20 05:23:22;;;;;;;6.93;2.22;;;15.50;99.90;;;;;;5101954;28;20031;-82
2023/09/20 05:25:48;;;;;;;7.55;2.28;;;15.50;99.90;;;;;;5100602;27;20112;-83
2023/09/20 05:28:15;;;;;;;7.18;2.28;;;15.50;99.90;;;;;;5102972;28;20065;-81
2023/09/20 05:30:44;;;;;;;10.50;2.28;;;15.50;99.90;;;;;;5097290;27;20068;-83
2023/09/20 05:33:12;;;;;;;3.72;1.77;;;15.60;99.90;;;;;;5097634;28;20020;-83
2023/09/20 05:35:40;;;;;;;12.38;2.17;;;15.60;99.90;;;;;;5104727;28;20134;-83
2023/09/20 05:38:10;;;;;;;8.77;3.22;;;15.70;99.90;;;;;;5104320;28;20118;-83
2023/09/20 05:40:37;;;;;;;11.48;2.50;;;15.70;99.90;;;;;;5098495;27;20023;-84
2023/09/20 05:43:04;;;;;;;7.78;2.72;;;15.70;99.90;;;;;;5103208;28;20123;-84
2023/09/20 05:45:35;;;;;;;5.57;2.75;;;15.70;99.90;;;;;;5104903;28;20027;-83
2023/09/20 05:48:03;;;;;;;11.93;2.25;;;15.80;99.90;;;;;;5101740;28;20110;-83
2023/09/20 05:50:33;;;;;;;10.40;1.92;;;15.80;99.90;;;;;;5099703;28;20035;-83
2023/09/20 05:53:11;;;;;;;4.53;1.65;;;15.80;99.90;;;;;;5098159;28;20035;-83
2023/09/20 05:55:38;;;;;;;3.67;1.73;;;15.80;99.90;;;;;;5101751;28;20027;-83
2023/09/20 05:58:05;;;;;;;9.98;2.78;;;15.80;99.90;;;;;;5083312;28;20113;-83
2023/09/20 06:00:30;;;;;;;8.75;2.50;;;15.80;99.90;;;;;;5104444;28;20062;-83
2023/09/20 06:02:57;;;;;;;10.13;3.30;;;15.80;99.90;;;;;;5105586;28;20066;-82
2023/09/20 06:05:26;;;;;;;6.30;2.33;;;15.80;99.90;;;;;;5086765;28;20480;-82
2023/09/20 06:07:57;;;;;;;8.70;2.00;;;15.90;99.90;;;;;;5098206;28;20123;-83
2023/09/20 06:10:23;;;;;;;5.82;2.58;;;15.80;99.90;;;;;;5101565;28;20027;-82
2023/09/20 06:12:50;;;;;;;6.85;2.17;;;15.90;99.90;;;;;;5103322;28;20500;-82
2023/09/20 06:15:16;;;;;;;4.30;2.05;;;15.90;99.90;;;;;;5104377;28;20034;-83
2023/09/20 06:17:43;;;;;;;9.68;2.40;;;15.90;99.90;;;;;;5101559;28;20032;-82
2023/09/20 06:20:12;;;;;;;8.50;2.72;;;16.00;99.90;;;;;;5103672;28;20500;-83
2023/09/20 06:22:41;;;;;;;8.10;2.10;;;16.00;99.90;;;;;;5103005;28;20043;-83
2023/09/20 06:25:07;;;;;;;5.63;2.08;;;16.00;99.90;;;;;;5107841;28;20027;-83
2023/09/20 06:27:34;;;;;;;5.72;1.95;;;16.00;99.90;;;;;;5104298;28;20043;-83
2023/09/20 06:30:06;;;;;;;5.32;2.22;;;16.10;99.90;;;;;;5108444;28;20397;-83
2023/09/20 06:32:33;;;;;;;7.05;2.22;;;16.10;99.90;;;;;;5102364;28;20562;-83
2023/09/20 06:35:02;;;;;;;5.93;2.05;;;16.10;99.90;;;;;;5103506;28;20062;-82
2023/09/20 06:37:28;;;;;;;4.63;2.28;;;16.00;99.90;;;;;;5103893;28;20028;-83
2023/09/20 06:39:55;;;;;;;7.30;2.72;;;16.10;99.90;;;;;;5097517;28;20038;-83
2023/09/20 06:42:20;;;;;;;5.35;1.75;;;16.10;99.90;;;;;;5101589;28;20032;-83
2023/09/20 06:44:46;;;;;;;9.25;2.58;;;16.10;99.90;;;;;;5105065;28;20031;-82
2023/09/20 06:47:17;;;;;;;7.10;2.47;;;16.10;99.90;;;;;;5100944;28;20039;-82
2023/09/20 06:49:42;;;;;;;6.15;2.00;;;16.20;99.90;;;;;;5099832;28;20345;-83
2023/09/20 06:52:08;;;;;;;7.63;2.08;;;16.20;99.90;;;;;;5107494;28;20022;-82
2023/09/20 06:54:36;;;;;;;12.98;2.13;;;16.10;99.90;;;;;;5101803;28;20061;-90
2023/09/20 06:57:03;;;;;;;5.63;1.90;;;16.20;99.90;;;;;;5100990;27;20391;-83
2023/09/20 06:59:33;;;;;;;4.15;1.98;;;16.20;99.90;;;;;;5094357;28;20051;-83
2023/09/20 07:02:02;;;;;;;3.70;1.58;;;16.20;99.90;;;;;;5097700;28;20023;-82
2023/09/20 07:04:28;;;;;;;6.18;2.22;;;16.20;99.90;;;;;;5084764;28;20414;-83
2023/09/20 07:06:55;;;;;;;9.20;2.08;;;16.30;99.90;;;;;;5106036;28;20043;-82
2023/09/20 07:09:21;;;;;;;4.72;1.98;;;16.30;99.90;;;;;;5105404;28;20030;-83
2023/09/20 07:11:51;;;;;;;8.15;2.25;;;16.30;99.90;;;;;;5104711;28;20020;-83
2023/09/20 07:14:26;;;;;;;4.57;1.90;;;16.40;99.90;;;;;;5103060;28;20028;-81
2023/09/20 07:16:52;;;;;;;7.30;2.30;;;16.40;99.90;;;;;;5102716;28;20015;-83
2023/09/20 07:19:22;;;;;;;6.15;2.17;;;16.40;99.90;;;;;;5106928;28;20023;-82
2023/09/20 07:21:48;;;;;;;12.65;2.47;;;16.50;99.90;;;;;;5106091;28;20519;-80
2023/09/20 07:24:14;;;;;;;3.70;1.50;;;16.50;99.90;;;;;;5104531;28;20035;-81
2023/09/20 07:26:44;;;;;;;9.40;2.03;;;16.50;99.90;;;;;;5105418;28;20027;-82
2023/09/20 07:29:14;;;;;;;9.77;3.15;;;16.60;99.90;;;;;;5111937;27;20036;-82
2023/09/20 07:31:40;;;;;;;4.07;1.80;;;16.60;99.90;;;;;;5102954;28;20035;-83
2023/09/20 07:34:16;;;;;;;9.38;2.42;;;16.60;99.90;;;;;;5103889;28;20406;-82
2023/09/20 07:36:45;;;;;;;3.60;2.13;;;16.60;99.90;;;;;;5105590;28;20039;-82
2023/09/20 07:39:13;;;;;;;10.27;2.47;;;16.70;99.90;;;;;;5102724;28;20491;-82
2023/09/20 07:41:50;;;;;;;8.90;2.38;;;16.80;99.90;;;;;;5102904;28;20020;-83
2023/09/20 07:44:17;;;;;;;8.00;2.08;;;16.90;99.90;;;;;;5093273;28;20243;-82
2023/09/20 07:46:43;;;;;;;2.78;1.45;;;17.00;99.90;;;;;;5102626;28;20411;-82
2023/09/20 07:49:13;;;;;;;6.63;2.63;;;17.10;99.90;;;;;;5102057;28;20024;-82
2023/09/20 07:51:41;;;;;;;2.70;1.67;;;17.10;99.90;;;;;;5098456;28;20425;-82
2023/09/20 07:54:10;;;;;;;5.00;1.83;;;17.20;99.90;;;;;;5106320;28;20027;-82
2023/09/20 07:56:36;;;;;;;6.95;2.10;;;17.20;99.90;;;;;;5102115;28;20107;-82
2023/09/20 07:59:05;;;;;;;4.13;1.73;;;17.20;99.90;;;;;;5098015;28;20045;-82
2023/09/20 08:01:32;;;;;;;5.03;1.70;;;17.30;99.90;;;;;;5104677;28;20027;-83
2023/09/20 08:03:58;;;;;;;9.77;2.60;;;17.30;99.90;;;;;;5104145;28;20079;-82
2023/09/20 08:06:37;;;;;;;6.80;2.03;;;17.30;99.90;;;;;;5086678;28;20088;-82
2023/09/20 08:09:04;;;;;;;6.97;2.30;;;17.40;99.90;;;;;;5098851;28;20023;-83
2023/09/20 08:11:32;;;;;;;3.55;1.83;;;17.50;99.90;;;;;;5101111;28;20027;-83
2023/09/20 08:14:08;;;;;;;9.82;2.33;;;17.50;99.90;;;;;;5108391;28;20401;-83
2023/09/20 08:16:35;;;;;;;13.82;2.20;;;17.60;99.90;;;;;;5098704;28;20058;-82
2023/09/20 08:19:09;;;;;;;6.55;2.20;;;17.70;99.90;;;;;;5109061;27;20026;-83
2023/09/20 08:21:35;;;;;;;3.43;1.50;;;17.80;99.90;;;;;;5088495;28;20071;-83
2023/09/20 09:00:24;;;;;;;9.90;1.85;;;18.90;99.90;;;;;;5103924;28;20414;-83
2023/09/20 09:02:56;;;;;;;6.20;1.63;;;18.90;99.90;;;;;;5100603;28;20504;-81
2023/09/20 09:05:23;;;;;;;5.22;1.77;;;19.00;99.90;;;;;;5101109;27;20024;-82
2023/09/20 09:07:49;;;;;;;7.72;2.00;;;19.00;99.90;;;;;;5105883;28;20114;-83
2023/09/20 09:10:15;;;;;;;5.47;1.60;;;19.00;99.90;;;;;;5104172;28;20487;-83
2023/09/20 09:12:42;;;;;;;5.25;1.42;;;19.10;99.90;;;;;;5102054;28;20020;-82
2023/09/20 09:15:11;;;;;;;8.07;2.13;;;19.10;99.90;;;;;;5102358;28;20020;-82
2023/09/20 09:17:47;;;;;;;1.83;1.30;;;19.10;99.90;;;;;;5100960;28;20018;-82
2023/09/20 09:20:18;;;;;;;4.60;1.67;;;19.10;99.90;;;;;;5101918;28;20024;-82
2023/09/20 09:22:47;;;;;;;7.30;1.77;;;19.30;99.90;;;;;;5101769;27;20135;-84
2023/09/20 09:25:14;;;;;;;8.52;2.45;;;19.40;99.90;;;;;;5105526;27;20035;-82
2023/09/20 09:27:42;;;;;;;5.28;2.03;;;19.40;99.90;;;;;;5101800;28;20042;-82
2023/09/20 09:30:33;;;;;;;4.55;1.58;;;19.50;99.90;;;;;;5104662;28;20758;-82
2023/09/20 09:32:59;;;;;;;5.72;1.90;;;19.60;99.90;;;;;;5101200;28;20396;-85
2023/09/20 09:35:26;;;;;;;10.20;2.00;;;19.70;99.90;;;;;;5103777;28;20015;-81
2023/09/20 09:37:52;;;;;;;5.28;2.13;;;19.80;99.90;;;;;;5102599;28;20020;-84
2023/09/20 09:40:18;;;;;;;6.30;1.60;;;19.90;99.90;;;;;;5105475;27;20032;-81
2023/09/20 09:42:44;;;;;;;8.15;1.77;;;19.90;99.90;;;;;;5103921;28;20115;-84
2023/09/20 09:45:10;;;;;;;8.07;2.40;;;20.10;99.90;;;;;;5104423;28;20016;-85
2023/09/20 09:47:37;;;;;;;8.60;1.92;;;20.10;99.90;;;;;;5100295;28;20043;-83
2023/09/20 09:50:10;;;;;;;6.38;1.27;;;20.20;99.90;;;;;;5101815;28;20026;-82
2023/09/20 09:52:39;;;;;;;2.55;1.42;;;20.30;99.90;;;;;;5098284;28;20015;-81
2023/09/20 09:55:06;;;;;;;7.68;1.52;;;20.40;99.90;;;;;;5098195;27;20468;-82
2023/09/20 09:57:32;;;;;;;7.13;2.00;;;20.50;99.90;;;;;;5102238;28;20343;-83
2023/09/20 09:59:57;;;;;;;4.13;1.98;;;20.60;99.90;;;;;;5106274;28;20111;-81
2023/09/20 10:02:28;;;;;;;5.82;1.45;;;20.60;99.90;;;;;;5103513;28;20047;-80
2023/09/20 10:05:07;;;;;;;7.05;1.67;;;20.60;99.90;;;;;;5102472;28;20457;-83
2023/09/20 10:07:45;;;;;;;4.57;1.52;;;20.70;99.90;;;;;;5101266;28;20573;-83
2023/09/20 10:10:13;;;;;;;5.53;1.55;;;20.80;99.90;;;;;;5103364;28;20016;-82
2023/09/20 10:12:44;;;;;;;7.55;1.65;;;20.80;99.90;;;;;;5103381;28;20026;-83
2023/09/20 10:15:11;;;;;;;4.70;1.50;;;20.80;99.90;;;;;;5103856;28;20024;-85
2023/09/20 10:17:44;;;;;;;7.65;2.35;;;20.80;99.90;;;;;;5104624;28;20024;-81
2023/09/20 10:20:14;;;;;;;9.32;2.08;;;20.80;99.90;;;;;;5095726;28;20131;-84
2023/09/20 10:22:41;;;;;;;5.15;1.55;;;20.80;99.90;;;;;;5099001;28;20522;-82
2023/09/20 10:25:27;;;;;;;8.45;1.70;;;20.90;99.90;;;;;;5096964;28;20020;-87
2023/09/20 10:27:54;;;;;;;9.18;2.15;;;21.00;99.90;;;;;;5081959;28;20048;-83
2023/09/20 10:30:21;;;;;;;3.47;1.75;;;21.00;99.90;;;;;;5104853;28;20423;-82
2023/09/20 10:32:47;;;;;;;4.90;1.52;;;21.10;99.90;;;;;;5101635;28;20028;-83
2023/09/20 10:35:44;;;;;;;11.60;1.45;;;21.10;99.90;;;;;;5096093;28;20312;-84
2023/09/20 10:38:08;;;;;;;5.13;1.70;;;21.20;99.90;;;;;;5102868;28;20379;-84
2023/09/20 10:40:46;;;;;;;4.72;1.63;;;21.30;99.90;;;;;;5098241;28;20031;-83
2023/09/20 10:43:15;;;;;;;2.50;1.42;;;21.40;99.90;;;;;;5087452;28;20028;-84
2023/09/20 10:45:50;;;;;;;4.30;1.50;;;21.40;99.90;;;;;;5103540;28;20455;-80
2023/09/20 10:48:23;;;;;;;7.78;2.10;;;21.50;99.90;;;;;;5101081;27;20482;-82
2023/09/20 10:50:59;;;;;;;3.40;1.58;;;21.50;99.90;;;;;;5093751;28;20043;-80
2023/09/20 10:53:52;;;;;;;6.78;1.60;;;21.50;99.90;;;;;;5097842;28;20023;-83
2023/09/20 10:56:44;;;;;;;4.28;1.70;;;21.50;99.90;;;;;;5098557;28;20020;-80
2023/09/20 10:59:18;;;;;;;3.92;1.70;;;21.50;99.90;;;;;;5098111;28;20027;-81
2023/09/20 11:01:50;;;;;;;3.33;1.67;;;21.50;99.90;;;;;;5103450;28;20028;-81
2023/09/20 11:04:15;;;;;;;4.45;1.60;;;21.50;99.90;;;;;;5104398;28;20104;-82
2023/09/20 11:06:53;;;;;;;3.28;1.63;;;21.40;99.90;;;;;;5106124;28;20472;-81
2023/09/20 11:09:23;;;;;;;6.50;1.88;;;21.40;99.90;;;;;;5107870;27;20032;-83
2023/09/20 11:11:50;;;;;;;3.33;1.50;;;21.40;99.90;;;;;;5103897;27;20027;-81
2023/09/20 11:14:19;;;;;;;8.07;1.88;;;21.30;99.90;;;;;;5107076;28;20043;-81
2023/09/20 11:16:45;;;;;;;4.07;1.70;;;21.30;99.90;;;;;;5102797;28;20032;-82
2023/09/20 11:19:12;;;;;;;5.45;1.58;;;21.40;99.90;;;;;;5097294;28;20031;-83
2023/09/20 11:21:40;;;;;;;4.88;1.90;;;21.50;99.90;;;;;;5105486;28;20047;-84
2023/09/20 11:24:11;;;;;;;8.73;1.50;;;21.60;99.90;;;;;;5106023;28;20039;-85
2023/09/20 11:26:40;;;;;;;8.07;2.15;;;21.60;99.90;;;;;;5102928;28;20049;-84
2023/09/20 11:29:09;;;;;;;7.13;1.70;;;21.60;99.90;;;;;;5103284;28;20494;-83
2023/09/20 11:31:36;;;;;;;8.57;2.10;;;21.60;99.90;;;;;;5102182;28;20023;-83
2023/09/20 11:34:03;;;;;;;4.22;1.83;;;21.80;99.90;;;;;;5104904;28;20076;-82
2023/09/20 11:36:40;;;;;;;5.05;1.67;;;21.90;99.90;;;;;;5100028;28;20020;-83
2023/09/20 11:39:06;;;;;;;3.50;1.77;;;22.00;99.90;;;;;;5104968;28;20031;-85
2023/09/20 11:41:36;;;;;;;4.43;1.73;;;22.20;99.90;;;;;;5101741;28;20019;-82
2023/09/20 11:44:05;;;;;;;4.53;1.90;;;22.30;99.90;;;;;;5106045;28;20474;-92
2023/09/20 11:46:33;;;;;;;7.03;1.58;;;22.40;99.90;;;;;;5084250;28;20391;-81
2023/09/20 11:49:00;;;;;;;3.50;1.10;;;22.40;99.90;;;;;;5103882;28;20023;-82
2023/09/20 11:51:28;;;;;;;8.68;2.10;;;22.30;99.90;;;;;;5087660;28;20024;-82
2023/09/20 11:53:54;;;;;;;5.07;1.63;;;22.30;99.90;;;;;;5105752;28;20148;-84
2023/09/20 11:56:30;;;;;;;4.90;1.33;;;22.20;99.90;;;;;;5085450;28;20031;-81
2023/09/20 11:59:09;;;;;;;3.83;1.50;;;22.10;99.90;;;;;;5098572;28;20031;-81
2023/09/20 12:01:40;;;;;;;9.57;1.73;;;22.10;99.90;;;;;;5087141;28;20039;-82
2023/09/20 12:04:09;;;;;;;6.13;2.00;;;22.10;99.90;;;;;;5099973;28;20122;-80
2023/09/20 12:06:35;;;;;;;3.95;1.30;;;22.20;99.90;;;;;;5099145;28;20027;-81
2023/09/20 12:09:02;;;;;;;3.65;1.48;;;22.20;99.90;;;;;;5105525;28;20020;-84
2023/09/20 12:11:28;;;;;;;4.80;1.42;;;22.30;99.90;;;;;;5089501;28;20027;-82
2023/09/20 12:13:54;;;;;;;3.47;1.40;;;22.20;99.90;;;;;;5104302;28;20023;-79
2023/09/20 12:16:23;;;;;;;6.00;1.60;;;22.30;99.90;;;;;;5102861;28;20724;-82
2023/09/20 12:18:49;;;;;;;4.85;2.03;;;22.30;99.90;;;;;;5102948;28;20035;-80
2023/09/20 12:21:15;;;;;;;8.63;1.75;;;22.30;99.90;;;;;;5104992;28;20085;-84
2023/09/20 12:23:41;;;;;;;4.50;1.70;;;22.30;99.90;;;;;;5102973;28;20058;-80
2023/09/20 12:26:11;;;;;;;4.35;1.52;;;22.30;99.90;;;;;;5104195;28;20027;-87
2023/09/20 12:28:38;;;;;;;4.13;1.35;;;22.40;99.90;;;;;;5101261;28;20039;-82
2023/09/20 12:31:04;;;;;;;5.15;1.60;;;22.50;99.90;;;;;;5102945;28;20046;-82
2023/09/20 12:33:30;;;;;;;5.78;1.42;;;22.50;99.90;;;;;;5107702;28;20100;-82
2023/09/20 12:35:57;;;;;;;5.90;1.60;;;22.50;99.90;;;;;;5086836;28;20031;-87
2023/09/20 12:38:23;;;;;;;6.18;2.22;;;22.50;99.90;;;;;;5106242;27;20867;-79
2023/09/20 12:40:49;;;;;;;1.88;1.27;;;22.40;99.90;;;;;;5109202;28;20110;-81
2023/09/20 12:43:16;;;;;;;5.57;2.08;;;22.40;99.90;;;;;;5105862;27;20093;-83
2023/09/20 12:45:45;;;;;;;8.48;1.45;;;22.40;99.90;;;;;;5108188;27;20023;-83
2023/09/20 12:48:14;;;;;;;2.05;1.25;;;22.40;99.90;;;;;;5107809;28;20130;-83
2023/09/20 12:50:41;;;;;;;2.72;1.52;;;22.50;99.90;;;;;;5107188;28;20050;-82
2023/09/20 12:53:08;;;;;;;7.22;2.20;;;22.60;99.90;;;;;;5108629;28;20023;-80
2023/09/20 12:55:40;;;;;;;6.25;1.95;;;22.60;99.90;;;;;;5103825;28;20022;-81
2023/09/20 12:58:10;;;;;;;4.30;1.83;;;22.80;99.90;;;;;;5107930;27;20023;-82
2023/09/20 13:00:37;;;;;;;2.83;1.52;;;22.90;99.90;;;;;;5104963;28;20030;-82
2023/09/20 13:03:06;;;;;;;4.63;1.60;;;23.00;99.90;;;;;;5095184;28;20079;-81
2023/09/20 13:05:32;;;;;;;4.68;1.48;;;23.00;99.90;;;;;;5107369;27;20027;-82
2023/09/20 13:07:59;;;;;;;4.82;1.60;;;22.90;99.90;;;;;;5103706;27;20433;-81
2023/09/20 13:10:26;;;;;;;3.53;1.50;;;22.80;99.90;;;;;;5109349;27;20043;-82
2023/09/20 13:12:52;;;;;;;1.33;1.17;;;22.70;99.90;;;;;;5103803;27;20099;-81
2023/09/20 13:15:19;;;;;;;6.00;1.60;;;22.70;99.90;;;;;;5104207;27;20088;-82
2023/09/20 13:17:46;;;;;;;5.82;1.90;;;22.60;99.90;;;;;;5110813;27;20012;-80
2023/09/20 13:20:15;;;;;;;4.45;1.83;;;22.70;99.90;;;;;;5114640;27;20066;-82
2023/09/20 13:22:42;;;;;;;5.28;1.33;;;22.70;99.90;;;;;;5111132;27;20060;-82
2023/09/20 13:25:09;;;;;;;6.80;2.13;;;22.60;99.90;;;;;;5111111;27;20030;-81
2023/09/20 13:27:38;;;;;;;2.78;1.50;;;22.70;99.90;;;;;;5110874;27;20035;-81
2023/09/20 13:30:09;;;;;;;4.78;1.30;;;22.80;99.90;;;;;;5110100;27;20617;-82